Time;durP1;ratioP1;P1;durP2;ratioP2;P2;SDS_P1;SDS_P2;PMS_P1;PMS_P2;Temp;Humidity;BMP_temperature;BMP_pressure;BME280_temperature;BME280_humidity;BME280_pressure;Samples;Min_cycle;Max_cycle;Signal;HPM_P1;HPM_P2
2022/05/04 00:02:13;;;;;;;16.80;12.10;;;12.00;99.90;;;12.84;100.00;98127.75;5041554;28;20474;-76
2022/05/04 00:04:43;;;;;;;13.47;10.83;;;12.00;99.90;;;12.84;100.00;98126.97;5043829;28;21264;-77
2022/05/04 00:07:13;;;;;;;22.93;12.60;;;12.00;99.90;;;12.86;100.00;98127.56;5040209;28;20464;-76
2022/05/04 00:09:43;;;;;;;18.30;12.50;;;12.10;99.90;;;12.86;100.00;98124.94;5038748;28;20448;-77
2022/05/04 00:12:14;;;;;;;17.97;11.60;;;12.10;99.90;;;12.88;100.00;98133.41;5044556;28;20556;-77
2022/05/04 00:14:43;;;;;;;18.63;12.73;;;12.10;99.90;;;12.88;100.00;98120.28;5044211;28;21993;-76
2022/05/04 00:17:13;;;;;;;20.60;10.93;;;12.00;99.90;;;12.88;100.00;98126.34;5040099;28;20503;-77
2022/05/04 00:19:42;;;;;;;18.87;12.80;;;12.00;99.90;;;12.87;100.00;98132.63;5040201;28;20471;-77
2022/05/04 00:22:18;;;;;;;16.83;11.47;;;12.00;99.90;;;12.83;100.00;98123.53;5040466;28;20818;-77
2022/05/04 00:24:48;;;;;;;13.73;11.03;;;12.00;99.90;;;12.83;100.00;98130.59;5041952;28;20527;-77
2022/05/04 00:27:19;;;;;;;20.60;11.33;;;12.00;99.90;;;12.79;100.00;98116.25;5040786;28;20465;-77
2022/05/04 00:29:50;;;;;;;18.13;12.00;;;12.00;99.90;;;12.83;100.00;98112.22;5040672;28;20468;-77
2022/05/04 00:32:21;;;;;;;18.80;12.43;;;12.00;99.90;;;12.83;100.00;98105.16;5040572;28;20982;-76
2022/05/04 00:34:51;;;;;;;17.87;11.67;;;12.00;99.90;;;12.78;100.00;98101.50;5043087;28;20483;-76
2022/05/04 00:37:22;;;;;;;16.00;11.83;;;11.90;99.90;;;12.78;100.00;98093.63;5042468;28;20472;-77
2022/05/04 00:39:52;;;;;;;15.10;11.60;;;11.90;99.90;;;12.77;100.00;98092.84;5039424;28;20520;-77
2022/05/04 00:42:23;;;;;;;18.20;12.07;;;11.90;99.90;;;12.80;100.00;98086.38;5040798;28;20996;-77
2022/05/04 00:44:53;;;;;;;17.90;12.10;;;11.90;99.90;;;12.78;100.00;98088.38;5044806;28;20989;-77
2022/05/04 00:47:24;;;;;;;18.53;10.80;;;11.90;99.90;;;12.77;100.00;98082.34;5038845;28;21477;-76
2022/05/04 00:49:55;;;;;;;14.70;11.37;;;11.90;99.90;;;12.75;100.00;98079.09;5039768;28;20476;-77
2022/05/04 00:52:25;;;;;;;14.70;11.30;;;12.00;99.90;;;12.71;100.00;98079.69;5043320;28;20809;-77
2022/05/04 00:54:55;;;;;;;18.67;10.60;;;11.90;99.90;;;12.69;100.00;98082.53;5041674;28;20951;-77
2022/05/04 01:00:12;;;;;;;13.20;10.63;;;11.80;99.90;;;12.64;100.00;98087.53;5039798;28;20468;-77
2022/05/04 01:02:43;;;;;;;14.40;9.60;;;11.80;99.90;;;12.60;100.00;98088.94;5043815;28;20458;-76
2022/05/04 01:05:13;;;;;;;17.70;9.60;;;11.70;99.90;;;12.63;100.00;98078.84;5043470;28;20491;-77
2022/05/04 01:07:47;;;;;;;12.50;9.13;;;11.80;99.90;;;12.65;100.00;98093.59;5040295;28;20461;-77
2022/05/04 01:10:17;;;;;;;15.90;8.20;;;11.80;99.90;;;12.65;100.00;98086.53;5042922;28;20454;-77
2022/05/04 01:12:49;;;;;;;11.50;8.60;;;11.80;99.90;;;12.63;100.00;98085.13;5044179;28;20497;-77
2022/05/04 01:15:20;;;;;;;9.50;8.00;;;11.80;99.90;;;12.64;100.00;98084.91;5040609;28;20871;-77
2022/05/04 01:17:51;;;;;;;16.17;7.83;;;11.80;99.90;;;12.66;100.00;98087.34;5041719;28;20457;-76
2022/05/04 01:20:24;;;;;;;18.00;7.93;;;11.90;99.90;;;12.63;100.00;98084.09;5043555;28;20522;-77
2022/05/04 01:22:57;;;;;;;11.70;8.90;;;11.90;99.90;;;12.66;100.00;98087.34;5043433;28;20979;-77
2022/05/04 01:25:26;;;;;;;11.53;7.53;;;11.90;99.90;;;12.67;100.00;98095.00;5044604;28;20497;-77
2022/05/04 01:27:57;;;;;;;12.10;8.27;;;11.90;99.90;;;12.67;100.00;98092.38;5042562;28;20963;-77
2022/05/04 01:30:30;;;;;;;10.80;7.17;;;11.90;99.90;;;12.63;100.00;98090.38;5039660;28;21069;-77
2022/05/04 01:33:00;;;;;;;13.93;7.80;;;11.80;99.90;;;12.60;100.00;98092.38;5041662;28;20457;-77
2022/05/04 01:35:30;;;;;;;9.23;7.67;;;11.90;99.90;;;12.63;100.00;98098.25;5041087;28;20490;-76
2022/05/04 01:38:01;;;;;;;10.70;7.00;;;11.80;99.90;;;12.63;100.00;98090.38;5044697;28;20463;-76
2022/05/04 01:40:31;;;;;;;12.57;8.17;;;11.80;99.90;;;12.63;100.00;98099.06;5043439;28;20543;-76
2022/05/04 01:43:02;;;;;;;9.87;7.17;;;11.80;99.90;;;12.61;100.00;98094.00;5040460;28;20477;-77
2022/05/04 01:45:31;;;;;;;12.27;7.57;;;11.90;99.90;;;12.62;100.00;98097.44;5037661;28;20461;-77
2022/05/04 01:48:01;;;;;;;13.20;8.80;;;11.80;99.90;;;12.63;100.00;98098.25;5039163;28;20461;-77
2022/05/04 01:50:32;;;;;;;10.67;8.43;;;11.80;99.90;;;12.62;100.00;98094.81;5039659;28;20826;-76
2022/05/04 01:53:04;;;;;;;10.67;7.73;;;11.80;99.90;;;12.64;100.00;98111.16;5037114;28;20507;-77
2022/05/04 01:55:36;;;;;;;12.30;8.50;;;11.90;99.90;;;12.66;100.00;98108.34;5039697;28;20489;-77
2022/05/04 01:58:07;;;;;;;16.40;8.27;;;11.90;99.90;;;12.66;100.00;98103.91;5039445;28;20454;-77
2022/05/04 02:00:36;;;;;;;11.87;7.50;;;11.90;99.90;;;12.67;100.00;98109.97;5037233;28;20466;-77
2022/05/04 02:03:06;;;;;;;15.03;8.50;;;11.90;99.90;;;12.68;100.00;98111.56;5038039;28;20485;-77
2022/05/04 02:05:37;;;;;;;14.20;8.40;;;11.90;99.90;;;12.69;100.00;98113.19;5041150;28;20465;-76
2022/05/04 02:08:09;;;;;;;20.90;9.30;;;11.90;99.90;;;12.69;100.00;98121.06;5038528;28;20470;-77
2022/05/04 02:10:39;;;;;;;11.53;8.50;;;11.90;99.90;;;12.71;100.00;98124.28;5039132;28;20461;-77
2022/05/04 02:13:09;;;;;;;12.90;8.70;;;11.80;99.90;;;12.70;100.00;98114.81;5039859;28;20489;-77
2022/05/04 02:15:42;;;;;;;11.70;7.83;;;11.90;99.90;;;12.71;100.00;98121.66;5039188;28;20474;-77
2022/05/04 02:18:13;;;;;;;10.90;8.70;;;11.90;99.90;;;12.70;100.00;98117.44;5038891;28;20538;-77
2022/05/04 02:20:43;;;;;;;9.77;7.87;;;11.90;99.90;;;12.67;100.00;98120.47;5037399;28;20465;-77
2022/05/04 02:23:14;;;;;;;14.33;8.20;;;11.80;99.90;;;12.62;100.00;98118.44;5043338;28;20554;-77
2022/05/04 02:25:43;;;;;;;13.03;8.93;;;11.80;99.90;;;12.63;100.00;98129.72;5040666;28;20466;-77
2022/05/04 02:28:14;;;;;;;8.97;7.27;;;11.80;99.90;;;12.63;100.00;98127.09;5039203;28;20461;-76
2022/05/04 02:30:44;;;;;;;11.50;7.93;;;11.80;99.90;;;12.61;100.00;98122.84;5036953;28;20476;-77
2022/05/04 02:33:15;;;;;;;13.73;8.43;;;11.80;99.90;;;12.63;100.00;98122.69;5040010;28;20820;-77
2022/05/04 02:38:40;;;;;;;12.40;8.40;;;11.90;99.90;;;12.67;100.00;98125.72;5041107;28;20481;-77
2022/05/04 02:41:11;;;;;;;18.33;8.60;;;11.80;99.90;;;12.66;100.00;98129.34;5040371;28;20515;-77
2022/05/04 02:43:41;;;;;;;11.67;8.50;;;11.90;99.90;;;12.66;100.00;98124.09;5043447;28;20473;-77
2022/05/04 02:46:17;;;;;;;13.60;9.00;;;11.90;99.90;;;12.63;100.00;98120.84;5037881;28;20450;-76
2022/05/04 02:48:47;;;;;;;13.00;8.93;;;11.70;99.90;;;12.59;100.00;98122.25;5036211;28;20493;-76
2022/05/04 02:51:17;;;;;;;13.53;8.20;;;11.70;99.90;;;12.57;100.00;98131.31;5040521;28;20453;-77
2022/05/04 02:53:48;;;;;;;14.10;8.90;;;11.80;99.90;;;12.59;100.00;98118.81;5039958;28;20492;-77
2022/05/04 02:56:18;;;;;;;15.70;8.80;;;11.80;99.90;;;12.58;100.00;98123.25;5041178;28;20547;-77
2022/05/04 02:58:51;;;;;;;12.23;9.10;;;11.80;99.90;;;12.60;100.00;98123.84;5037568;28;20572;-78
2022/05/04 03:04:13;;;;;;;16.30;8.60;;;11.80;99.90;;;12.58;100.00;98115.38;5029664;28;20481;-78
2022/05/04 03:06:44;;;;;;;11.63;8.93;;;11.80;99.90;;;12.60;100.00;98105.50;5039581;28;20456;-77
2022/05/04 03:09:15;;;;;;;12.50;8.53;;;11.80;99.90;;;12.63;100.00;98114.00;5038733;28;20468;-82
2022/05/04 03:11:56;;;;;;;32.53;17.90;;;11.80;99.90;;;12.63;100.00;98111.38;5038611;28;20473;-77
2022/05/04 03:14:27;;;;;;;12.97;10.03;;;11.80;99.90;;;12.56;100.00;98120.00;5039412;28;20449;-77
2022/05/04 03:16:58;;;;;;;13.50;9.73;;;11.70;99.90;;;12.59;100.00;98114.38;5037106;28;20530;-78
2022/05/04 03:19:28;;;;;;;15.20;9.00;;;11.80;99.90;;;12.63;100.00;98116.63;5041406;28;20457;-77
2022/05/04 03:21:57;;;;;;;13.80;8.97;;;11.90;99.90;;;12.63;100.00;98112.97;5043689;28;20464;-89
2022/05/04 03:24:29;;;;;;;14.47;8.80;;;11.80;99.90;;;12.66;100.00;98124.09;5040746;28;22125;-78
2022/05/04 03:26:58;;;;;;;11.53;9.13;;;11.80;99.90;;;12.66;100.00;98129.34;5043746;28;20485;-77
2022/05/04 03:29:28;;;;;;;11.30;9.07;;;11.80;99.90;;;12.65;100.00;98128.53;5042244;28;20464;-77
2022/05/04 03:31:58;;;;;;;12.47;10.30;;;11.90;99.90;;;12.65;100.00;98130.34;5043853;28;21235;-77
2022/05/04 03:34:28;;;;;;;12.93;8.77;;;11.90;99.90;;;12.67;100.00;98133.59;5043909;28;20484;-77
2022/05/04 03:36:59;;;;;;;14.87;9.60;;;11.90;99.90;;;12.66;100.00;98129.34;5046520;28;20489;-77
2022/05/04 03:39:30;;;;;;;14.50;9.93;;;11.90;99.90;;;12.69;100.00;98126.31;5044877;28;20454;-78
2022/05/04 03:42:01;;;;;;;24.80;10.60;;;11.90;99.90;;;12.68;100.00;98127.31;5045795;28;20453;-86
2022/05/04 03:44:31;;;;;;;15.10;10.40;;;11.90;99.90;;;12.67;100.00;98120.47;5045076;28;20552;-78
2022/05/04 03:47:02;;;;;;;11.30;9.83;;;12.00;99.90;;;12.65;100.00;98114.59;5041476;28;20472;-77
2022/05/04 03:49:32;;;;;;;18.50;11.60;;;12.00;99.90;;;12.63;100.00;98103.50;5045054;28;20469;-77
2022/05/04 03:52:01;;;;;;;16.83;10.60;;;11.90;99.90;;;12.63;100.00;98094.59;5044596;28;20446;-77
2022/05/04 03:54:32;;;;;;;14.70;10.60;;;11.90;99.90;;;12.63;100.00;98091.97;5045048;28;20475;-77
2022/05/04 03:57:03;;;;;;;15.83;11.00;;;11.80;99.90;;;12.67;100.00;98092.38;5041656;28;20525;-77
2022/05/04 03:59:33;;;;;;;15.33;10.77;;;11.90;99.90;;;12.66;100.00;98097.84;5042808;28;20453;-77
2022/05/04 04:02:03;;;;;;;17.60;10.23;;;11.90;99.90;;;12.61;100.00;98090.56;5044545;28;20457;-77
2022/05/04 04:04:34;;;;;;;17.20;11.63;;;11.90;99.90;;;12.63;100.00;98089.34;5045841;28;20462;-86
2022/05/04 04:07:03;;;;;;;37.33;16.87;;;11.90;99.90;;;12.65;100.00;98099.66;5044811;28;21093;-79
2022/05/04 04:09:34;;;;;;;20.87;11.90;;;11.90;99.90;;;12.68;100.00;98103.69;5044130;28;20498;-78
2022/05/04 04:12:07;;;;;;;13.43;10.43;;;11.90;99.90;;;12.70;100.00;98107.75;5045614;28;20473;-78
2022/05/04 04:14:38;;;;;;;30.60;17.97;;;11.90;99.90;;;12.71;100.00;98108.53;5045387;28;20472;-78
2022/05/04 04:17:08;;;;;;;18.50;10.17;;;11.90;99.90;;;12.71;100.00;98109.34;5044169;28;20532;-78
2022/05/04 04:19:39;;;;;;;16.90;10.13;;;11.90;99.90;;;12.73;100.00;98109.16;5042910;28;20457;-78
2022/05/04 04:22:08;;;;;;;13.80;9.80;;;11.90;99.90;;;12.71;100.00;98101.47;5044494;28;20457;-78
2022/05/04 04:24:39;;;;;;;19.80;9.97;;;11.90;99.90;;;12.72;100.00;98108.34;5045480;28;20468;-78
2022/05/04 04:27:10;;;;;;;23.50;10.30;;;11.90;99.90;;;12.72;100.00;98115.41;5043687;28;20496;-78
2022/05/04 04:29:41;;;;;;;17.13;9.93;;;11.90;99.90;;;12.71;100.00;98114.59;5046028;28;20473;-78
2022/05/04 04:32:13;;;;;;;14.80;10.20;;;11.80;99.90;;;12.71;100.00;98119.84;5044301;28;20572;-78
2022/05/04 04:34:42;;;;;;;16.20;11.27;;;11.80;99.90;;;12.72;100.00;98118.03;5047065;28;20518;-78
2022/05/04 04:37:12;;;;;;;20.43;11.43;;;11.90;99.90;;;12.72;100.00;98112.78;5045751;28;20976;-78
2022/05/04 04:39:43;;;;;;;15.97;10.23;;;11.90;99.90;;;12.72;100.00;98104.91;5046163;28;20976;-78
2022/05/04 04:42:14;;;;;;;13.50;10.90;;;11.90;99.90;;;12.72;100.00;98105.72;5043927;28;20489;-78
2022/05/04 04:44:43;;;;;;;18.13;11.83;;;11.90;99.90;;;12.72;100.00;98097.03;5044600;28;20454;-78
2022/05/04 04:47:14;;;;;;;15.83;10.80;;;11.80;99.90;;;12.69;100.00;98102.69;5045606;28;20467;-78
2022/05/04 04:49:43;;;;;;;14.47;10.43;;;11.90;99.90;;;12.69;100.00;98100.06;5043631;28;20461;-78
2022/05/04 04:52:13;;;;;;;12.00;9.87;;;11.90;99.90;;;12.68;100.00;98099.25;5043294;28;20468;-78
2022/05/04 04:54:44;;;;;;;18.33;12.10;;;11.90;99.90;;;12.69;100.00;98107.94;5046062;28;20532;-78
2022/05/04 04:57:13;;;;;;;18.60;11.60;;;11.80;99.90;;;12.66;100.00;98109.16;5046493;28;20511;-78
2022/05/04 04:59:50;;;;;;;15.67;11.23;;;11.90;99.90;;;12.67;100.00;98112.59;5044574;28;20460;-78
2022/05/04 05:02:20;;;;;;;18.80;10.87;;;11.90;99.90;;;12.68;100.00;98101.06;5046667;28;20634;-78
2022/05/04 05:04:51;;;;;;;14.47;10.90;;;11.90;99.90;;;12.68;100.00;98104.50;5045248;28;20464;-78
2022/05/04 05:07:20;;;;;;;14.60;10.80;;;11.90;99.90;;;12.70;100.00;98112.19;5044296;28;20524;-78
2022/05/04 05:09:51;;;;;;;17.37;11.17;;;11.80;99.90;;;12.72;100.00;98120.66;5044770;28;20485;-78
2022/05/04 05:12:22;;;;;;;14.63;11.20;;;11.80;99.90;;;12.69;100.00;98113.19;5045293;28;20456;-78
2022/05/04 05:17:41;;;;;;;14.27;11.43;;;11.80;99.90;;;12.72;100.00;98115.41;5046162;28;20565;-78
2022/05/04 05:20:12;;;;;;;20.20;12.37;;;11.90;99.90;;;12.73;100.00;98111.78;5046050;28;20539;-78
2022/05/04 05:22:42;;;;;;;21.27;12.13;;;11.90;99.90;;;12.72;100.00;98118.84;5044656;28;20437;-78
2022/05/04 05:25:13;;;;;;;14.20;11.00;;;11.80;99.90;;;12.74;100.00;98110.78;5044380;28;20542;-78
2022/05/04 05:27:44;;;;;;;19.30;14.10;;;11.80;99.90;;;12.74;100.00;98118.66;5044455;28;20465;-78
2022/05/04 05:30:16;;;;;;;16.53;11.80;;;11.90;99.90;;;12.74;100.00;98118.66;5045056;28;20560;-78
2022/05/04 05:32:47;;;;;;;16.00;11.20;;;11.90;99.90;;;12.74;100.00;98122.06;5043265;28;20452;-78
2022/05/04 05:35:16;;;;;;;14.67;11.60;;;11.90;99.90;;;12.76;100.00;98121.88;5044399;28;20552;-78
2022/05/04 05:37:45;;;;;;;15.93;12.73;;;11.90;99.90;;;12.78;100.00;98127.72;5044214;28;20587;-78
2022/05/04 05:40:20;;;;;;;15.17;11.63;;;11.90;99.90;;;12.78;100.00;98127.72;5045184;28;20466;-78
2022/05/04 05:42:50;;;;;;;13.80;11.33;;;11.90;99.90;;;12.82;100.00;98123.72;5045566;28;20462;-78
2022/05/04 05:45:20;;;;;;;16.77;10.90;;;11.90;99.90;;;12.82;100.00;98124.53;5044645;28;20449;-78
2022/05/04 05:47:51;;;;;;;20.90;11.90;;;12.00;99.90;;;12.85;100.00;98128.56;5045918;28;20446;-78
2022/05/04 05:50:22;;;;;;;15.47;11.20;;;12.00;99.90;;;12.87;100.00;98126.56;5045561;28;20991;-78
2022/05/04 05:52:53;;;;;;;13.93;11.00;;;12.00;99.90;;;12.84;100.00;98132.22;5043663;28;20496;-79
2022/05/04 05:55:26;;;;;;;14.20;11.33;;;12.00;99.90;;;12.85;100.00;98136.44;5043807;28;20519;-78
2022/05/04 05:57:55;;;;;;;16.00;11.03;;;11.90;99.90;;;12.84;100.00;98140.88;5044699;28;20496;-78
2022/05/04 06:00:25;;;;;;;13.73;10.90;;;11.90;99.90;;;12.83;100.00;98141.09;5043369;28;20493;-78
2022/05/04 06:02:55;;;;;;;18.30;11.00;;;12.00;99.90;;;12.80;100.00;98139.66;5045834;28;20457;-78
2022/05/04 06:05:25;;;;;;;17.90;10.33;;;11.90;99.90;;;12.79;100.00;98145.09;5043878;28;20462;-78
2022/05/04 06:07:55;;;;;;;15.57;10.47;;;11.90;99.90;;;12.75;100.00;98138.63;5043865;28;20592;-78
2022/05/04 06:10:34;;;;;;;15.50;10.63;;;11.90;99.90;;;12.76;100.00;98133.19;5044689;28;20468;-78
2022/05/04 06:13:04;;;;;;;13.20;10.33;;;11.90;99.90;;;12.76;100.00;98132.38;5045783;28;20445;-78
2022/05/04 06:15:34;;;;;;;14.73;11.03;;;11.90;99.90;;;12.78;100.00;98130.34;5044540;28;20493;-78
2022/05/04 06:18:05;;;;;;;20.30;10.40;;;12.00;99.90;;;12.80;100.00;98134.41;5042422;28;20469;-79
2022/05/04 06:20:35;;;;;;;16.67;10.87;;;11.90;99.90;;;12.80;100.00;98138.84;5042791;28;20788;-78
2022/05/04 06:23:06;;;;;;;16.60;11.77;;;12.00;99.90;;;12.81;100.00;98143.06;5043796;28;20461;-78
2022/05/04 06:25:36;;;;;;;15.63;10.90;;;12.00;99.90;;;12.82;100.00;98142.88;5043612;28;20461;-78
2022/05/04 06:28:06;;;;;;;16.17;9.93;;;12.00;99.90;;;12.82;100.00;98142.06;5044765;28;20440;-78
2022/05/04 06:36:12;;;;;;;17.60;9.70;;;12.00;99.90;;;12.82;100.00;98161.25;5045267;28;20817;-78
2022/05/04 06:38:42;;;;;;;14.67;9.63;;;12.00;99.90;;;12.84;100.00;98153.19;5043347;28;20500;-78
2022/05/04 06:41:14;;;;;;;15.87;9.17;;;12.10;99.90;;;12.77;100.00;98147.94;5045212;28;20948;-78
2022/05/04 06:43:43;;;;;;;18.30;10.17;;;12.10;99.90;;;12.80;100.00;98152.78;5044495;28;20466;-78
2022/05/04 06:46:15;;;;;;;11.10;9.13;;;12.10;99.90;;;12.85;100.00;98154.81;5045326;28;20442;-78
2022/05/04 06:48:45;;;;;;;15.07;10.53;;;12.10;99.90;;;12.86;100.00;98162.50;5044166;28;20495;-78
2022/05/04 06:51:16;;;;;;;9.10;7.80;;;12.10;99.90;;;12.89;100.00;98156.03;5045570;28;20459;-78
2022/05/04 06:53:46;;;;;;;9.97;8.20;;;12.10;99.90;;;12.93;100.00;98152.81;5041559;28;20537;-78
2022/05/04 06:56:36;;;;;;;24.23;8.57;;;12.10;99.90;;;12.98;100.00;98149.59;5043014;28;20829;-78
2022/05/04 06:59:07;;;;;;;12.90;9.80;;;12.20;99.90;;;13.03;100.00;98155.03;5043891;28;21042;-78
2022/05/04 07:01:37;;;;;;;16.83;9.90;;;12.20;99.90;;;13.07;100.00;98164.16;5043147;28;20457;-78
2022/05/04 07:04:07;;;;;;;13.80;8.93;;;12.30;99.90;;;13.10;100.00;98159.34;5042561;28;20456;-78
2022/05/04 07:06:37;;;;;;;10.27;7.90;;;12.40;99.90;;;13.16;100.00;98157.72;5043509;28;20482;-78
2022/05/04 07:09:07;;;;;;;14.17;9.17;;;12.40;99.90;;;13.22;100.00;98162.19;5043591;28;21023;-79
2022/05/04 07:11:37;;;;;;;15.67;10.10;;;12.50;99.90;;;13.26;100.00;98165.22;5042475;28;20475;-78
2022/05/04 07:14:08;;;;;;;10.27;8.10;;;12.50;99.90;;;13.26;100.00;98158.13;5042752;28;20461;-79
2022/05/04 07:16:38;;;;;;;13.33;8.23;;;12.50;99.90;;;13.28;100.00;98161.38;5044739;28;20442;-78
2022/05/04 07:19:16;;;;;;;12.77;8.80;;;12.50;99.90;;;13.29;100.00;98157.75;5043685;28;20481;-79
2022/05/04 07:21:46;;;;;;;15.83;8.60;;;12.60;99.90;;;13.32;100.00;98156.53;5042310;28;20489;-78
2022/05/04 07:24:16;;;;;;;11.70;8.47;;;12.60;99.90;;;13.30;100.00;98161.97;5043884;28;20510;-79
2022/05/04 07:26:46;;;;;;;11.80;7.70;;;12.50;99.90;;;13.31;100.00;98160.16;5041532;28;20441;-79
2022/05/04 07:29:16;;;;;;;11.20;7.60;;;12.50;99.90;;;13.34;100.00;98165.81;5039723;28;20453;-78
2022/05/04 07:31:46;;;;;;;10.73;8.37;;;12.50;99.90;;;13.33;100.00;98168.66;5040951;28;20449;-78
2022/05/04 07:34:17;;;;;;;10.30;8.37;;;12.50;99.90;;;13.33;100.00;98166.81;5041459;28;20437;-78
2022/05/04 07:36:48;;;;;;;11.60;8.97;;;12.50;99.90;;;13.31;100.00;98166.22;5041250;28;20540;-78
2022/05/04 07:44:49;;;;;;;14.67;8.07;;;12.60;99.90;;;13.41;100.00;98160.56;5041286;28;20484;-78
2022/05/04 07:47:25;;;;;;;15.90;9.50;;;12.60;99.90;;;13.46;100.00;98163.41;5041475;28;20447;-78
2022/05/04 07:49:56;;;;;;;10.43;7.33;;;12.60;99.90;;;13.45;100.00;98162.59;5041031;28;20460;-79
2022/05/04 07:52:25;;;;;;;10.33;8.30;;;12.60;99.90;;;13.46;100.00;98163.41;5040134;28;20454;-78
2022/05/04 07:54:54;;;;;;;10.57;8.27;;;12.80;99.90;;;13.49;100.00;98161.19;5039324;28;20466;-79
2022/05/04 07:57:26;;;;;;;11.97;7.87;;;12.80;99.90;;;13.52;100.00;98166.03;5039244;28;20438;-79
2022/05/04 08:05:42;;;;;;;10.10;8.53;;;12.90;99.90;;;13.72;100.00;98168.63;5042053;28;20456;-79
2022/05/04 08:08:11;;;;;;;13.03;8.30;;;13.00;99.90;;;13.77;100.00;98165.41;5046027;28;20466;-78
2022/05/04 08:10:41;;;;;;;15.70;8.30;;;13.00;99.90;;;13.80;100.00;98167.63;5046514;28;20476;-78
2022/05/04 08:13:13;;;;;;;9.57;6.90;;;13.10;99.90;;;13.83;100.00;98169.84;5046185;28;20463;-79
2022/05/04 08:15:44;;;;;;;10.40;8.00;;;13.10;99.90;;;13.84;100.00;98172.28;5047056;28;20449;-78
2022/05/04 08:18:14;;;;;;;11.30;8.70;;;13.10;99.90;;;13.86;100.00;98169.41;5044625;28;20954;-78
2022/05/04 08:20:43;;;;;;;15.70;8.40;;;13.10;99.90;;;13.87;100.00;98171.06;5044995;28;20461;-78
2022/05/04 08:23:13;;;;;;;11.40;7.67;;;13.10;99.90;;;13.93;100.00;98162.34;5047345;28;20466;-78
2022/05/04 08:25:44;;;;;;;11.73;8.03;;;13.20;99.90;;;13.99;100.00;98161.50;5046250;28;20465;-78
2022/05/04 08:28:13;;;;;;;10.20;7.80;;;13.20;99.90;;;14.05;100.00;98163.34;5047482;28;20462;-78
2022/05/04 08:30:43;;;;;;;9.20;7.93;;;13.30;99.90;;;14.07;100.00;98161.28;5046495;28;21004;-79
2022/05/04 08:33:15;;;;;;;12.87;8.37;;;13.30;99.90;;;14.13;100.00;98161.28;5047352;28;20465;-79
2022/05/04 08:35:44;;;;;;;14.57;8.60;;;13.40;99.90;;;14.14;100.00;98156.81;5046145;28;20464;-78
2022/05/04 08:38:14;;;;;;;12.13;8.37;;;13.40;99.90;;;14.19;100.00;98151.78;5046612;28;20580;-79
2022/05/04 08:40:46;;;;;;;9.60;7.87;;;13.50;99.90;;;14.24;100.00;98154.56;5045784;28;20485;-78
2022/05/04 08:43:21;;;;;;;13.83;7.93;;;13.50;99.90;;;14.26;100.00;98149.94;5045960;28;20472;-78
2022/05/04 08:45:54;;;;;;;13.57;8.50;;;13.50;99.90;;;14.35;100.00;98159.22;5046234;28;20479;-79
2022/05/04 08:48:25;;;;;;;10.50;7.83;;;13.60;99.90;;;14.41;100.00;98155.75;5045410;28;20458;-79
2022/05/04 08:50:56;;;;;;;12.17;8.13;;;13.70;99.90;;;14.47;100.00;98162.03;5046194;28;20465;-79
2022/05/04 08:53:27;;;;;;;10.60;8.17;;;13.70;99.90;;;14.50;100.00;98156.34;5043575;28;20480;-79
2022/05/04 08:55:56;;;;;;;9.60;7.40;;;13.80;99.90;;;14.55;100.00;98157.31;5046479;28;20892;-78
2022/05/04 08:58:28;;;;;;;8.07;6.90;;;13.90;99.90;;;14.60;100.00;98154.88;5043382;28;20440;-78
2022/05/04 09:00:58;;;;;;;11.60;8.50;;;13.90;99.90;;;14.65;100.00;98148.19;5046327;28;20538;-78
2022/05/04 09:03:29;;;;;;;23.77;7.40;;;14.00;99.90;;;14.70;100.00;98150.97;5043867;28;20483;-78
2022/05/04 09:05:59;;;;;;;13.53;7.80;;;14.00;99.90;;;14.76;100.00;98150.13;5046766;28;20450;-78
2022/05/04 09:08:58;;;;;;;8.80;7.20;;;14.10;99.90;;;14.82;100.00;98149.31;5045159;28;21378;-79
2022/05/04 09:11:28;;;;;;;8.40;6.73;;;14.10;99.90;;;14.90;100.00;98143.75;5045453;28;20525;-78
2022/05/04 09:14:00;;;;;;;10.10;7.50;;;14.20;99.90;;;14.96;100.00;98143.72;5046648;28;20537;-79
2022/05/04 09:16:33;;;;;;;17.33;6.70;;;14.40;99.90;;;15.04;100.00;98147.94;5044590;28;20948;-78
2022/05/04 09:19:07;;;;;;;13.67;8.10;;;14.40;99.90;;;15.08;100.00;98146.50;5046728;28;20457;-79
2022/05/04 09:21:38;;;;;;;8.30;7.10;;;14.50;99.90;;;15.10;100.00;98144.44;5045337;28;20449;-78
2022/05/04 09:24:09;;;;;;;8.07;6.63;;;14.50;99.90;;;15.13;100.00;98146.69;5043515;28;20501;-79
2022/05/04 09:26:43;;;;;;;8.80;6.73;;;14.50;99.90;;;15.16;100.00;98143.63;5045210;28;20478;-79
2022/05/04 09:29:16;;;;;;;6.40;5.63;;;14.50;99.90;;;15.24;100.00;98147.81;5046004;28;20494;-79
2022/05/04 09:31:48;;;;;;;11.50;6.80;;;14.60;99.90;;;15.28;100.00;98144.53;5045042;28;20522;-78
2022/05/04 09:34:22;;;;;;;7.30;6.27;;;14.70;99.90;;;15.35;100.00;98140.00;5044761;28;20485;-79
2022/05/04 09:45:42;;;;;;;12.93;6.40;;;15.00;99.90;;;15.75;100.00;98134.44;5029207;28;20468;-78
2022/05/04 09:48:13;;;;;;;9.47;6.07;;;15.10;99.90;;;15.84;100.00;98127.84;5046279;28;20449;-78
2022/05/04 09:50:45;;;;;;;7.03;5.80;;;15.20;99.90;;;15.98;100.00;98131.97;5042647;28;20477;-78
2022/05/04 09:53:27;;;;;;;10.50;6.07;;;15.40;99.90;;;16.13;100.00;98134.25;5045106;28;20966;-78
2022/05/04 09:55:57;;;;;;;6.60;6.00;;;15.50;99.90;;;16.25;100.00;98135.09;5045159;28;20448;-79
2022/05/04 09:58:27;;;;;;;7.07;5.70;;;15.70;99.90;;;16.33;100.00;98132.19;5043213;28;20454;-79
2022/05/04 10:00:59;;;;;;;8.37;5.67;;;15.80;99.90;;;16.41;100.00;98137.97;5041965;28;20486;-78
2022/05/04 10:03:29;;;;;;;7.87;6.63;;;15.90;99.90;;;16.47;100.00;98134.44;5042634;28;20470;-78
2022/05/04 10:06:03;;;;;;;9.83;5.97;;;16.00;99.90;;;16.57;100.00;98126.81;5042082;28;20446;-78
2022/05/04 10:08:34;;;;;;;9.23;5.80;;;16.00;99.90;;;16.64;100.00;98124.09;5042472;28;20437;-78
2022/05/04 10:11:05;;;;;;;8.13;5.03;;;16.10;99.90;;;16.77;100.00;98129.19;5043267;28;20465;-79
2022/05/04 10:13:35;;;;;;;7.30;5.50;;;16.30;99.90;;;16.84;100.00;98114.06;5045522;28;20544;-79
2022/05/04 10:16:10;;;;;;;6.77;5.03;;;16.50;99.90;;;16.89;100.00;98121.31;5044571;28;20445;-78
2022/05/04 10:18:42;;;;;;;8.20;5.37;;;16.50;99.90;;;16.96;100.00;98122.03;5045983;28;20457;-79
2022/05/04 10:21:15;;;;;;;7.20;5.80;;;16.50;99.90;;;16.95;100.00;98121.22;5044564;28;21003;-79
2022/05/04 10:23:50;;;;;;;8.73;5.23;;;16.60;99.90;;;16.98;100.00;98119.94;5045051;28;20529;-78
2022/05/04 10:26:33;;;;;;;10.53;5.60;;;16.50;99.90;;;17.02;100.00;98116.66;5045658;28;20441;-78
2022/05/04 10:32:11;;;;;;;6.80;5.40;;;16.50;99.90;;;17.09;100.00;98116.53;5043540;28;20476;-79
2022/05/04 10:34:43;;;;;;;8.00;5.10;;;16.50;99.90;;;17.07;100.00;98114.13;5045323;28;20461;-79
2022/05/04 10:37:20;;;;;;;13.20;5.50;;;16.60;99.90;;;17.06;100.00;98111.72;5045999;28;20442;-79
2022/05/04 10:40:07;;;;;;;8.13;5.80;;;16.60;99.90;;;17.06;100.00;98109.88;5045929;28;21064;-79
2022/05/04 10:42:56;;;;;;;11.10;5.07;;;16.50;99.90;;;17.08;100.00;98107.00;5044324;28;20480;-78
2022/05/04 10:45:31;;;;;;;6.37;4.30;;;16.50;99.90;;;17.11;100.00;98109.22;5044247;28;20438;-79
2022/05/04 10:48:35;;;;;;;5.97;4.97;;;16.50;99.90;;;17.09;100.00;98098.03;5044705;28;20444;-79
2022/05/04 10:51:18;;;;;;;10.60;5.83;;;16.50;99.90;;;17.10;100.00;98097.03;5043666;28;20464;-79
2022/05/04 10:53:53;;;;;;;13.13;5.47;;;16.50;99.90;;;17.08;100.00;98089.31;5044328;28;20449;-78
2022/05/04 10:56:25;;;;;;;6.20;5.00;;;16.60;99.90;;;17.10;100.00;98092.53;5044373;28;20515;-78
2022/05/04 10:58:59;;;;;;;8.90;5.33;;;16.60;99.90;;;17.16;100.00;98088.19;5042842;28;20512;-79
2022/05/04 11:01:31;;;;;;;6.20;4.80;;;16.60;99.90;;;17.18;100.00;98078.16;5040856;28;20500;-78
2022/05/04 11:04:24;;;;;;;7.17;5.67;;;16.60;99.90;;;17.27;100.00;98079.47;5043764;28;20445;-78